createdAt,value
2019-05-16T00:02:01.216Z,17.67
2019-05-16T00:04:33.006Z,18.20
2019-05-16T00:07:04.193Z,16.85
2019-05-16T00:09:35.338Z,17.25
2019-05-16T00:12:08.552Z,17.98
2019-05-16T00:14:38.722Z,17.50
2019-05-16T00:17:09.858Z,18.50
2019-05-16T00:19:40.859Z,17.90
2019-05-16T00:22:11.612Z,19.23
2019-05-16T00:24:45.598Z,18.02
2019-05-16T00:27:18.455Z,18.95
2019-05-16T00:29:49.039Z,17.48
2019-05-16T00:32:20.150Z,19.30
2019-05-16T00:34:51.222Z,18.50
2019-05-16T00:37:33.817Z,19.60
2019-05-16T00:40:08.079Z,19.15
2019-05-16T00:42:39.892Z,18.32
2019-05-16T00:45:13.361Z,18.37
2019-05-16T00:47:49.996Z,17.48
2019-05-16T00:50:19.821Z,18.92
2019-05-16T00:52:51.975Z,17.55
2019-05-16T00:55:32.313Z,18.32
2019-05-16T00:58:04.476Z,20.37
2019-05-16T01:00:49.845Z,19.07
2019-05-16T01:03:13.509Z,18.77
2019-05-16T01:05:50.140Z,20.30
2019-05-16T01:08:21.368Z,19.62
2019-05-16T01:10:52.503Z,18.82
2019-05-16T01:13:24.044Z,18.90
2019-05-16T01:15:57.999Z,19.00
2019-05-16T01:18:29.145Z,20.27
2019-05-16T01:21:11.659Z,19.55
2019-05-16T01:23:43.696Z,18.80
2019-05-16T01:26:15.129Z,20.02
2019-05-16T01:28:48.207Z,19.23
2019-05-16T01:31:24.018Z,19.75
2019-05-16T01:33:55.226Z,19.23
2019-05-16T01:36:36.146Z,18.87
2019-05-16T01:39:03.766Z,19.32
2019-05-16T01:41:35.273Z,19.20
2019-05-16T01:44:18.313Z,18.62
2019-05-16T01:46:58.440Z,18.00
2019-05-16T01:49:38.134Z,19.17
2019-05-16T01:52:11.369Z,19.12
2019-05-16T01:54:43.945Z,19.37
2019-05-16T01:57:15.402Z,18.62
2019-05-16T01:59:48.597Z,21.55
2019-05-16T02:02:21.350Z,21.37
2019-05-16T02:07:53.216Z,21.02
2019-05-16T02:10:24.235Z,18.95
2019-05-16T02:12:55.487Z,25.02
2019-05-16T02:15:28.575Z,23.30
2019-05-16T02:18:08.754Z,19.67
2019-05-16T02:20:40.811Z,20.95
2019-05-16T02:23:12.525Z,21.20
2019-05-16T02:25:43.677Z,19.07
2019-05-16T02:28:15.053Z,18.17
2019-05-16T02:30:46.239Z,18.50
2019-05-16T02:33:21.264Z,18.35
2019-05-16T02:35:55.772Z,19.17
2019-05-16T02:38:25.038Z,17.90
2019-05-16T02:40:57.078Z,18.98
2019-05-16T02:43:32.282Z,17.27
2019-05-16T02:46:06.047Z,18.42
2019-05-16T02:48:37.318Z,19.30
2019-05-16T02:51:11.013Z,18.73
2019-05-16T02:53:41.598Z,19.15
2019-05-16T02:56:15.320Z,18.45
2019-05-16T02:58:51.991Z,19.52
2019-05-16T03:01:31.481Z,19.07
2019-05-16T03:04:03.873Z,19.55
2019-05-16T03:06:41.009Z,18.60
2019-05-16T03:09:12.552Z,17.30
2019-05-16T03:11:50.843Z,18.07
2019-05-16T03:14:24.439Z,18.57
2019-05-16T03:17:00.864Z,17.48
2019-05-16T03:19:32.409Z,16.45
2019-05-16T03:22:04.261Z,19.48
2019-05-16T03:24:35.908Z,18.27
2019-05-16T03:27:10.846Z,21.85
2019-05-16T03:29:41.830Z,19.80
2019-05-16T03:32:15.064Z,18.87
2019-05-16T03:34:47.570Z,19.17
2019-05-16T03:37:24.304Z,18.10
2019-05-16T03:39:51.500Z,18.00
2019-05-16T03:42:22.952Z,17.30
2019-05-16T03:44:54.304Z,18.07
2019-05-16T03:47:25.274Z,16.00
2019-05-16T03:49:56.343Z,16.05
2019-05-16T03:52:30.793Z,16.67
2019-05-16T03:55:02.231Z,17.07
2019-05-16T03:57:33.507Z,16.70
2019-05-16T04:00:05.255Z,17.70
2019-05-16T04:02:36.644Z,16.80
2019-05-16T04:05:11.142Z,16.87
2019-05-16T04:07:42.685Z,17.37
2019-05-16T04:10:15.120Z,16.60
2019-05-16T04:12:51.322Z,17.30
2019-05-16T04:15:21.605Z,18.67
2019-05-16T04:17:52.801Z,19.50
2019-05-16T04:20:25.394Z,21.40
2019-05-16T04:23:01.638Z,19.30
2019-05-16T04:25:32.949Z,17.20
2019-05-16T04:28:04.438Z,16.50
2019-05-16T04:30:35.752Z,15.58
2019-05-16T04:33:06.702Z,16.55
2019-05-16T04:35:51.839Z,17.77
2019-05-16T04:38:34.997Z,17.92
2019-05-16T04:40:55.408Z,16.40
2019-05-16T04:43:26.673Z,15.75
2019-05-16T04:46:01.041Z,15.88
2019-05-16T04:48:31.128Z,15.48
2019-05-16T04:51:02.677Z,16.02
2019-05-16T04:53:34.483Z,17.15
2019-05-16T04:56:06.536Z,15.53
2019-05-16T04:58:40.538Z,15.83
2019-05-16T05:01:11.134Z,16.77
2019-05-16T05:04:00.181Z,17.60
2019-05-16T05:06:20.564Z,15.13
2019-05-16T05:08:58.319Z,16.20
2019-05-16T05:11:26.604Z,16.80
2019-05-16T05:14:00.777Z,15.43
2019-05-16T05:16:32.499Z,15.43
2019-05-16T05:19:04.877Z,16.10
2019-05-16T05:21:36.756Z,16.57
2019-05-16T05:24:10.933Z,15.70
2019-05-16T05:26:44.212Z,15.60
2019-05-16T05:29:15.114Z,16.60
2019-05-16T05:31:47.437Z,15.93
2019-05-16T05:34:19.870Z,14.20
2019-05-16T05:36:53.922Z,12.75
2019-05-16T05:39:24.897Z,14.68
2019-05-16T05:45:11.122Z,14.53
2019-05-16T05:47:42.379Z,13.88
2019-05-16T05:50:15.378Z,15.43
2019-05-16T05:52:51.856Z,16.67
2019-05-16T05:55:22.728Z,14.38
2019-05-16T05:57:53.885Z,14.93
2019-05-16T06:00:26.410Z,15.43
2019-05-16T06:02:57.384Z,13.62
2019-05-16T06:05:30.413Z,13.15
2019-05-16T06:08:01.043Z,12.82
2019-05-16T06:10:35.243Z,13.78
2019-05-16T06:13:07.344Z,14.00
2019-05-16T06:15:39.951Z,12.80
2019-05-16T06:18:12.645Z,13.22
2019-05-16T06:20:51.427Z,13.88
2019-05-16T06:23:21.674Z,13.03
2019-05-16T06:25:53.047Z,14.15
2019-05-16T06:28:24.198Z,13.62
2019-05-16T06:30:55.539Z,13.62
2019-05-16T06:33:26.509Z,13.13
2019-05-16T06:36:00.101Z,13.70
2019-05-16T06:38:31.535Z,14.15
2019-05-16T06:41:05.585Z,13.10
2019-05-16T06:43:36.807Z,12.30
2019-05-16T06:46:07.782Z,12.37
2019-05-16T06:48:39.882Z,13.03
2019-05-16T06:51:11.133Z,13.58
2019-05-16T06:53:45.129Z,14.25
2019-05-16T06:56:19.968Z,13.95
2019-05-16T06:58:52.134Z,14.58
2019-05-16T07:01:26.487Z,14.10
2019-05-16T07:04:00.154Z,14.58
2019-05-16T07:06:51.756Z,15.00
2019-05-16T07:09:05.542Z,14.33
2019-05-16T07:11:39.808Z,13.83
2019-05-16T07:14:11.012Z,13.68
2019-05-16T07:16:49.783Z,13.60
2019-05-16T07:19:22.250Z,14.20
2019-05-16T07:21:56.121Z,13.85
2019-05-16T07:24:30.436Z,14.78
2019-05-16T07:27:05.157Z,14.50
2019-05-16T07:29:40.186Z,15.90
2019-05-16T07:32:13.312Z,14.80
2019-05-16T07:34:44.410Z,15.25
2019-05-16T07:37:20.369Z,14.18
2019-05-16T07:39:57.051Z,14.43
2019-05-16T07:49:00.955Z,13.65
2019-05-16T07:51:33.270Z,13.68
2019-05-16T07:54:04.950Z,13.45
2019-05-16T07:56:36.507Z,14.10
2019-05-16T07:59:10.193Z,13.60
2019-05-16T08:01:43.357Z,13.32
2019-05-16T08:04:14.327Z,13.83
2019-05-16T08:06:47.174Z,14.13
2019-05-16T08:09:21.148Z,13.78
2019-05-16T08:11:52.382Z,13.50
2019-05-16T08:14:24.919Z,15.05
2019-05-16T08:16:56.024Z,14.18
2019-05-16T08:19:30.572Z,12.30
2019-05-16T08:22:01.966Z,12.63
2019-05-16T08:24:36.162Z,13.40
2019-05-16T08:27:22.665Z,12.95
2019-05-16T08:29:53.817Z,13.20
2019-05-16T08:32:25.055Z,13.45
2019-05-16T08:35:01.139Z,12.78
2019-05-16T08:37:46.602Z,13.28
2019-05-16T08:40:21.706Z,13.32
2019-05-16T08:42:52.954Z,14.55
2019-05-16T08:45:26.631Z,14.47
2019-05-16T08:47:59.689Z,13.88
2019-05-16T08:50:35.109Z,13.43
2019-05-16T08:53:06.616Z,13.75
2019-05-16T08:55:36.681Z,13.55
2019-05-16T08:58:13.257Z,13.93
2019-05-16T09:00:42.016Z,11.65
2019-05-16T09:03:13.010Z,12.13
2019-05-16T09:05:43.916Z,13.20
2019-05-16T09:08:18.960Z,11.68
2019-05-16T09:11:00.868Z,12.45
2019-05-16T09:13:22.951Z,12.25
2019-05-16T09:15:56.885Z,12.40
2019-05-16T09:18:29.280Z,13.78
2019-05-16T09:21:07.296Z,13.25
2019-05-16T09:23:38.648Z,13.80
2019-05-16T09:26:09.998Z,13.30
2019-05-16T09:28:41.114Z,13.30
2019-05-16T09:31:12.462Z,13.65
2019-05-16T09:33:43.575Z,13.15
2019-05-16T09:36:17.254Z,13.32
2019-05-16T09:38:48.559Z,13.90
2019-05-16T09:41:19.598Z,12.55
2019-05-16T09:43:50.809Z,12.68
2019-05-16T09:46:23.939Z,12.35
2019-05-16T09:49:15.245Z,12.60
2019-05-16T09:51:31.198Z,12.43
2019-05-16T09:54:03.093Z,12.55
2019-05-16T09:56:36.987Z,12.82
2019-05-16T09:59:08.215Z,12.85
2019-05-16T10:01:48.390Z,13.62
2019-05-16T10:11:42.747Z,13.00
2019-05-16T10:14:18.374Z,9.08
2019-05-16T10:16:50.110Z,8.68
2019-05-16T10:19:24.263Z,8.40
2019-05-16T10:22:00.230Z,8.00
2019-05-16T10:24:31.221Z,6.92
2019-05-16T10:27:07.157Z,5.55
2019-05-16T10:29:38.366Z,5.87
2019-05-16T10:32:10.352Z,6.08
2019-05-16T10:34:41.382Z,5.90
2019-05-16T10:37:27.363Z,6.22
2019-05-16T10:39:52.667Z,7.47
2019-05-16T10:42:28.610Z,6.97
2019-05-16T10:44:57.706Z,7.47
2019-05-16T10:47:31.336Z,6.87
2019-05-16T10:50:02.624Z,6.55
2019-05-16T10:52:36.485Z,6.65
2019-05-16T10:55:11.849Z,6.92
2019-05-16T10:57:47.434Z,6.60
2019-05-16T11:00:42.417Z,5.60
2019-05-16T11:02:52.665Z,5.40
2019-05-16T11:05:30.505Z,5.42
2019-05-16T11:07:57.409Z,5.47
2019-05-16T11:10:29.692Z,5.78
2019-05-16T11:13:01.055Z,5.20
2019-05-16T11:15:37.285Z,5.35
2019-05-16T11:18:12.522Z,5.47
2019-05-16T11:20:45.871Z,6.97
2019-05-16T11:23:22.217Z,8.33
2019-05-16T11:25:48.840Z,8.38
2019-05-16T11:28:19.667Z,8.28
2019-05-16T11:30:54.675Z,7.42
2019-05-16T11:33:28.207Z,6.40
2019-05-16T11:35:57.991Z,5.92
2019-05-16T11:38:29.116Z,6.65
2019-05-16T11:41:01.391Z,7.15
2019-05-16T11:43:32.418Z,6.30
2019-05-16T11:46:03.293Z,6.75
2019-05-16T11:48:37.353Z,5.72
2019-05-16T11:51:07.931Z,6.42
2019-05-16T11:53:39.102Z,6.12
2019-05-16T11:56:10.325Z,6.00
2019-05-16T11:58:41.300Z,5.03
2019-05-16T12:01:12.194Z,5.90
2019-05-16T12:03:43.175Z,6.83
2019-05-16T12:06:14.177Z,4.25
2019-05-16T12:08:49.400Z,4.08
2019-05-16T12:11:24.002Z,3.00
2019-05-16T12:13:56.707Z,3.22
2019-05-16T12:16:27.856Z,2.65
2019-05-16T12:18:58.954Z,3.02
2019-05-16T12:21:29.620Z,2.83
2019-05-16T12:24:00.713Z,2.80
2019-05-16T12:26:31.729Z,3.02
2019-05-16T12:29:02.794Z,3.08
2019-05-16T12:31:33.659Z,3.00
2019-05-16T12:34:04.528Z,3.10
2019-05-16T12:36:37.901Z,3.00
2019-05-16T12:39:10.445Z,2.72
2019-05-16T12:41:41.841Z,2.60
2019-05-16T12:44:12.719Z,5.50
2019-05-16T12:46:43.799Z,2.50
2019-05-16T12:49:14.838Z,3.10
2019-05-16T12:51:46.596Z,3.77
2019-05-16T12:54:18.246Z,4.00
2019-05-16T12:56:49.532Z,4.30
2019-05-16T12:59:21.541Z,3.85
2019-05-16T13:01:52.548Z,4.15
2019-05-16T13:04:28.125Z,4.75
2019-05-16T13:06:59.356Z,5.17
2019-05-16T13:09:32.574Z,5.75
2019-05-16T13:12:03.813Z,6.80
2019-05-16T13:14:39.490Z,6.85
2019-05-16T13:17:07.456Z,8.03
2019-05-16T13:19:44.171Z,8.23
2019-05-16T13:22:16.727Z,9.75
2019-05-16T13:24:48.059Z,10.38
2019-05-16T13:27:23.025Z,10.70
2019-05-16T13:29:52.503Z,10.10
2019-05-16T13:32:23.542Z,10.05
2019-05-16T13:34:54.719Z,11.18
2019-05-16T13:37:27.649Z,10.68
2019-05-16T13:40:01.165Z,10.75
2019-05-16T13:42:32.099Z,11.25
2019-05-16T13:45:03.265Z,11.15
2019-05-16T13:47:34.342Z,11.85
2019-05-16T13:50:11.606Z,11.78
2019-05-16T13:52:39.213Z,12.43
2019-05-16T13:55:10.775Z,13.45
2019-05-16T13:57:41.631Z,15.23
2019-05-16T14:00:17.051Z,15.25
2019-05-16T14:02:46.347Z,15.23
2019-05-16T14:05:18.044Z,14.18
2019-05-16T14:07:49.222Z,15.20
2019-05-16T14:10:20.006Z,14.65
2019-05-16T14:12:51.233Z,15.85
2019-05-16T14:15:23.931Z,15.13
2019-05-16T14:17:56.796Z,13.98
2019-05-16T14:20:28.680Z,15.03
2019-05-16T14:23:01.683Z,14.93
2019-05-16T14:25:32.243Z,14.60
2019-05-16T14:28:03.282Z,14.55
2019-05-16T14:30:36.969Z,14.73
2019-05-16T14:33:13.896Z,14.07
2019-05-16T14:35:39.039Z,14.80
2019-05-16T14:38:10.950Z,15.03
2019-05-16T14:40:41.977Z,14.70
2019-05-16T14:43:17.097Z,14.95
2019-05-16T14:45:47.243Z,15.75
2019-05-16T14:48:18.515Z,15.65
2019-05-16T14:50:50.296Z,15.30
2019-05-16T14:53:21.392Z,14.95
2019-05-16T14:55:52.873Z,15.40
2019-05-16T14:58:23.895Z,14.70
2019-05-16T15:00:57.444Z,15.15
2019-05-16T15:03:27.415Z,14.53
2019-05-16T15:06:01.326Z,14.87
2019-05-16T15:08:32.294Z,14.93
2019-05-16T15:11:03.409Z,14.30
2019-05-16T15:13:34.534Z,16.15
2019-05-16T15:16:07.397Z,15.88
2019-05-16T15:18:38.383Z,16.12
2019-05-16T15:21:09.632Z,16.62
2019-05-16T15:23:41.741Z,16.52
2019-05-16T15:26:12.735Z,15.98
2019-05-16T15:28:43.732Z,15.50
2019-05-16T15:31:18.038Z,14.85
2019-05-16T15:33:50.240Z,16.82
2019-05-16T15:36:21.592Z,16.42
2019-05-16T15:38:56.723Z,17.37
2019-05-16T15:41:27.222Z,16.35
2019-05-16T15:43:59.288Z,17.15
2019-05-16T15:46:30.300Z,16.27
2019-05-16T15:49:01.374Z,17.07
2019-05-16T15:51:33.605Z,16.60
2019-05-16T15:54:06.750Z,16.67
2019-05-16T15:56:38.877Z,16.52
2019-05-16T15:59:10.906Z,17.62
2019-05-16T16:01:42.048Z,18.25
2019-05-16T16:04:12.984Z,18.25
2019-05-16T16:06:44.087Z,17.55
2019-05-16T16:09:17.166Z,17.25
2019-05-16T16:11:48.754Z,17.70
2019-05-16T16:14:20.137Z,17.87
2019-05-16T16:16:51.556Z,17.67
2019-05-16T16:19:22.437Z,17.37
2019-05-16T16:21:53.370Z,17.62
2019-05-16T16:24:27.697Z,17.80
2019-05-16T16:26:56.856Z,17.48
2019-05-16T16:29:27.766Z,17.37
2019-05-16T16:31:58.676Z,17.92
2019-05-16T16:34:29.828Z,18.17
2019-05-16T16:37:00.741Z,17.95
2019-05-16T16:39:31.869Z,18.27
2019-05-16T16:42:02.928Z,17.95
2019-05-16T16:44:36.401Z,18.40
2019-05-16T16:47:06.785Z,19.52
2019-05-16T16:49:39.478Z,18.37
2019-05-16T16:52:10.425Z,19.27
2019-05-16T16:54:41.289Z,18.32
2019-05-16T16:57:12.326Z,18.80
2019-05-16T16:59:43.249Z,18.57
2019-05-16T17:02:16.988Z,17.95
2019-05-16T17:04:50.835Z,18.20
2019-05-16T17:07:19.129Z,17.20
2019-05-16T17:09:50.311Z,17.50
2019-05-16T17:12:21.090Z,17.75
2019-05-16T17:14:52.335Z,17.52
2019-05-16T17:17:23.398Z,17.90
2019-05-16T17:19:56.574Z,17.73
2019-05-16T17:22:26.778Z,17.25
2019-05-16T17:24:57.957Z,17.55
2019-05-16T17:27:28.825Z,16.57
2019-05-16T17:30:00.882Z,17.90
2019-05-16T17:32:32.228Z,17.20
2019-05-16T17:35:03.138Z,18.42
2019-05-16T17:37:37.285Z,18.67
2019-05-16T17:40:08.714Z,17.85
2019-05-16T17:42:39.691Z,17.80
2019-05-16T17:45:11.305Z,18.02
2019-05-16T17:47:42.184Z,18.73
2019-05-16T17:50:14.206Z,18.70
2019-05-16T17:52:47.649Z,19.25
2019-05-16T17:55:19.492Z,17.48
2019-05-16T17:57:50.623Z,19.00
2019-05-16T18:00:26.173Z,17.85
2019-05-16T18:02:57.040Z,19.42
2019-05-16T18:05:28.097Z,19.48
2019-05-16T18:07:59.253Z,19.77
2019-05-16T18:10:30.929Z,21.40
2019-05-16T18:13:01.897Z,18.75
2019-05-16T18:15:32.780Z,18.35
2019-05-16T18:18:03.785Z,19.95
2019-05-16T18:20:36.995Z,18.85
2019-05-16T18:23:07.609Z,19.67
2019-05-16T18:25:38.796Z,19.80
2019-05-16T18:28:10.171Z,19.35
2019-05-16T18:30:41.028Z,20.08
2019-05-16T18:33:11.968Z,19.87
2019-05-16T18:35:43.065Z,20.80
2019-05-16T18:38:16.985Z,20.10
2019-05-16T18:40:48.201Z,21.45
2019-05-16T18:43:21.372Z,19.52
2019-05-16T18:45:51.549Z,19.67
2019-05-16T18:48:22.547Z,20.25
2019-05-16T18:50:53.730Z,19.77
2019-05-16T18:53:26.828Z,20.50
2019-05-16T18:55:57.574Z,19.55
2019-05-16T18:58:28.321Z,18.80
2019-05-16T19:00:59.343Z,19.50
2019-05-16T19:03:30.471Z,19.02
2019-05-16T19:06:01.519Z,18.05
2019-05-16T19:08:32.517Z,19.23
2019-05-16T19:11:03.655Z,18.45
2019-05-16T19:13:36.748Z,19.15
2019-05-16T19:16:07.091Z,19.80
2019-05-16T19:18:38.176Z,19.20
2019-05-16T19:21:09.125Z,20.27
2019-05-16T19:23:40.150Z,20.17
2019-05-16T19:26:11.194Z,19.50
2019-05-16T19:28:42.355Z,19.92
2019-05-16T19:31:13.369Z,18.52
2019-05-16T19:33:48.590Z,18.45
2019-05-16T19:36:16.992Z,17.85
2019-05-16T19:38:47.985Z,18.52
2019-05-16T19:41:18.979Z,19.35
2019-05-16T19:43:49.861Z,18.70
2019-05-16T19:46:23.390Z,19.10
2019-05-16T19:48:53.063Z,18.98
2019-05-16T19:51:24.249Z,18.17
2019-05-16T19:53:56.589Z,18.95
2019-05-16T19:56:27.955Z,18.95
2019-05-16T19:58:59.245Z,20.60
2019-05-16T20:01:30.388Z,20.02
2019-05-16T20:04:01.608Z,19.52
2019-05-16T20:06:32.621Z,21.85
2019-05-16T20:09:03.646Z,20.88
2019-05-16T20:11:36.902Z,20.23
2019-05-16T20:14:07.597Z,22.22
2019-05-16T20:16:40.645Z,20.68
2019-05-16T20:19:13.901Z,21.73
2019-05-16T20:21:47.476Z,21.37
2019-05-16T20:24:17.240Z,21.02
2019-05-16T20:26:48.417Z,23.85
2019-05-16T20:29:19.483Z,22.52
2019-05-16T20:31:50.570Z,23.55
2019-05-16T20:34:21.664Z,22.17
2019-05-16T20:36:52.621Z,24.40
2019-05-16T20:39:23.628Z,21.77
2019-05-16T20:41:56.926Z,25.57
2019-05-16T20:44:26.866Z,24.10
2019-05-16T20:46:57.586Z,24.32
2019-05-16T20:49:28.697Z,25.00
2019-05-16T20:51:59.792Z,25.15
2019-05-16T20:54:31.100Z,23.92
2019-05-16T20:57:02.032Z,23.52
2019-05-16T20:59:33.090Z,24.85
2019-05-16T21:02:04.024Z,24.52
2019-05-16T21:04:37.259Z,24.67
2019-05-16T21:07:10.782Z,24.82
2019-05-16T21:09:42.489Z,24.30
2019-05-16T21:12:13.465Z,24.25
2019-05-16T21:14:44.651Z,24.98
2019-05-16T21:17:19.091Z,24.80
2019-05-16T21:19:50.109Z,23.42
2019-05-16T21:22:21.450Z,23.73
2019-05-16T21:24:52.360Z,23.95
2019-05-16T21:27:23.164Z,24.57
2019-05-16T21:29:56.676Z,24.55
2019-05-16T21:32:27.758Z,24.67
2019-05-16T21:34:58.617Z,24.65
2019-05-16T21:37:29.792Z,24.82
2019-05-16T21:40:01.128Z,25.68
2019-05-16T21:42:32.369Z,25.97
2019-05-16T21:45:03.227Z,25.92
2019-05-16T21:47:36.760Z,25.35
2019-05-16T21:50:08.480Z,24.27
2019-05-16T21:52:39.523Z,24.47
2019-05-16T21:55:11.481Z,25.15
2019-05-16T21:57:43.613Z,26.55
2019-05-16T22:00:18.571Z,26.65
2019-05-16T22:02:49.773Z,26.73
2019-05-16T22:05:20.961Z,26.87
2019-05-16T22:07:52.053Z,25.75
2019-05-16T22:10:23.169Z,25.97
2019-05-16T22:12:56.872Z,25.20
2019-05-16T22:15:26.800Z,26.23
2019-05-16T22:17:57.927Z,25.45
2019-05-16T22:20:28.697Z,26.57
2019-05-16T22:22:59.743Z,27.17
2019-05-16T22:25:31.648Z,24.67
2019-05-16T22:28:02.754Z,25.37
2019-05-16T22:30:33.976Z,25.57
2019-05-16T22:33:08.836Z,26.00
2019-05-16T22:35:37.589Z,26.90
2019-05-16T22:38:08.907Z,25.90
2019-05-16T22:40:39.890Z,25.00
2019-05-16T22:43:10.905Z,25.68
2019-05-16T22:45:42.162Z,26.55
2019-05-16T22:48:13.030Z,27.02
2019-05-16T22:50:43.945Z,28.20
2019-05-16T22:53:17.025Z,27.58
2019-05-16T22:55:47.762Z,26.45
2019-05-16T22:58:19.052Z,27.10
2019-05-16T23:00:50.205Z,27.48
2019-05-16T23:03:44.746Z,25.88
2019-05-16T23:06:16.274Z,26.90
2019-05-16T23:08:47.552Z,27.67
2019-05-16T23:11:19.446Z,25.25
2019-05-16T23:13:50.595Z,26.57
2019-05-16T23:16:21.405Z,26.65
2019-05-16T23:18:52.454Z,26.50
2019-05-16T23:21:23.493Z,27.10
2019-05-16T23:23:54.330Z,26.85
2019-05-16T23:26:26.849Z,27.35
2019-05-16T23:28:58.060Z,26.48
2019-05-16T23:31:29.473Z,26.27
2019-05-16T23:34:00.413Z,25.70
2019-05-16T23:36:31.396Z,27.32
2019-05-16T23:39:06.256Z,26.37
2019-05-16T23:41:37.143Z,26.12
2019-05-16T23:44:08.387Z,25.68
2019-05-16T23:46:42.919Z,26.05
2019-05-16T23:49:14.081Z,24.70
2019-05-16T23:51:46.924Z,24.43
2019-05-16T23:54:17.503Z,25.77
2019-05-16T23:56:48.915Z,24.32
2019-05-16T23:59:19.801Z,24.60
